sensor_id;sensor_type;location;lat;lon;timestamp;P1;durP1;ratioP1;P2;durP2;ratioP2
8538;SDS011;4307;53.868;11.680;2023-11-22T00:02:02;2.87;;;2.30;;
8538;SDS011;4307;53.868;11.680;2023-11-22T00:04:29;4.40;;;2.17;;
8538;SDS011;4307;53.868;11.680;2023-11-22T00:06:55;4.90;;;2.30;;
8538;SDS011;4307;53.868;11.680;2023-11-22T00:09:22;2.97;;;2.17;;
8538;SDS011;4307;53.868;11.680;2023-11-22T00:11:49;4.70;;;2.60;;
8538;SDS011;4307;53.868;11.680;2023-11-22T00:14:15;2.67;;;2.27;;
8538;SDS011;4307;53.868;11.680;2023-11-22T00:16:42;1.97;;;1.73;;
8538;SDS011;4307;53.868;11.680;2023-11-22T00:19:10;2.53;;;2.33;;
8538;SDS011;4307;53.868;11.680;2023-11-22T00:21:37;2.63;;;1.93;;
8538;SDS011;4307;53.868;11.680;2023-11-22T00:24:04;2.87;;;2.23;;
8538;SDS011;4307;53.868;11.680;2023-11-22T00:26:31;3.50;;;2.20;;
8538;SDS011;4307;53.868;11.680;2023-11-22T00:28:57;2.80;;;2.37;;
8538;SDS011;4307;53.868;11.680;2023-11-22T00:31:24;2.23;;;2.03;;
8538;SDS011;4307;53.868;11.680;2023-11-22T00:33:51;2.20;;;2.00;;
8538;SDS011;4307;53.868;11.680;2023-11-22T00:36:19;2.60;;;1.90;;
8538;SDS011;4307;53.868;11.680;2023-11-22T00:38:45;2.70;;;1.90;;
8538;SDS011;4307;53.868;11.680;2023-11-22T00:41:12;4.63;;;2.07;;
8538;SDS011;4307;53.868;11.680;2023-11-22T00:43:39;5.00;;;2.20;;
8538;SDS011;4307;53.868;11.680;2023-11-22T00:46:06;3.17;;;2.40;;
8538;SDS011;4307;53.868;11.680;2023-11-22T00:48:33;3.17;;;2.27;;
8538;SDS011;4307;53.868;11.680;2023-11-22T00:50:59;5.50;;;2.67;;
8538;SDS011;4307;53.868;11.680;2023-11-22T00:53:33;2.60;;;2.40;;
8538;SDS011;4307;53.868;11.680;2023-11-22T00:56:01;4.53;;;2.50;;
8538;SDS011;4307;53.868;11.680;2023-11-22T00:58:28;5.30;;;2.40;;
8538;SDS011;4307;53.868;11.680;2023-11-22T01:00:55;3.47;;;2.03;;
8538;SDS011;4307;53.868;11.680;2023-11-22T01:03:22;2.37;;;2.17;;
8538;SDS011;4307;53.868;11.680;2023-11-22T01:05:49;3.23;;;2.67;;
8538;SDS011;4307;53.868;11.680;2023-11-22T01:08:15;7.33;;;5.30;;
8538;SDS011;4307;53.868;11.680;2023-11-22T01:10:43;6.83;;;3.70;;
8538;SDS011;4307;53.868;11.680;2023-11-22T01:13:11;4.07;;;3.37;;
8538;SDS011;4307;53.868;11.680;2023-11-22T01:15:39;3.93;;;3.20;;
8538;SDS011;4307;53.868;11.680;2023-11-22T01:18:06;5.87;;;3.17;;
8538;SDS011;4307;53.868;11.680;2023-11-22T01:20:33;3.87;;;2.90;;
8538;SDS011;4307;53.868;11.680;2023-11-22T01:22:59;4.57;;;2.60;;
8538;SDS011;4307;53.868;11.680;2023-11-22T01:25:26;3.40;;;2.30;;
8538;SDS011;4307;53.868;11.680;2023-11-22T01:27:54;4.60;;;2.87;;
8538;SDS011;4307;53.868;11.680;2023-11-22T01:30:21;6.00;;;3.00;;
8538;SDS011;4307;53.868;11.680;2023-11-22T01:32:48;4.30;;;2.90;;
8538;SDS011;4307;53.868;11.680;2023-11-22T01:35:15;4.10;;;2.67;;
8538;SDS011;4307;53.868;11.680;2023-11-22T01:37:41;5.17;;;2.83;;
8538;SDS011;4307;53.868;11.680;2023-11-22T01:40:08;4.57;;;2.67;;
8538;SDS011;4307;53.868;11.680;2023-11-22T01:42:36;5.50;;;2.83;;
8538;SDS011;4307;53.868;11.680;2023-11-22T01:45:06;3.93;;;3.00;;
8538;SDS011;4307;53.868;11.680;2023-11-22T01:47:34;4.87;;;2.97;;
8538;SDS011;4307;53.868;11.680;2023-11-22T01:50:02;4.20;;;2.70;;
8538;SDS011;4307;53.868;11.680;2023-11-22T01:52:30;3.00;;;2.43;;
8538;SDS011;4307;53.868;11.680;2023-11-22T01:54:57;2.83;;;2.47;;
8538;SDS011;4307;53.868;11.680;2023-11-22T01:57:24;3.70;;;2.60;;
8538;SDS011;4307;53.868;11.680;2023-11-22T01:59:51;3.10;;;2.20;;
8538;SDS011;4307;53.868;11.680;2023-11-22T02:02:19;2.80;;;2.50;;
8538;SDS011;4307;53.868;11.680;2023-11-22T02:04:46;2.33;;;2.13;;
8538;SDS011;4307;53.868;11.680;2023-11-22T02:07:12;4.87;;;2.50;;
8538;SDS011;4307;53.868;11.680;2023-11-22T02:09:38;2.83;;;2.37;;
8538;SDS011;4307;53.868;11.680;2023-11-22T02:12:05;2.60;;;2.40;;
8538;SDS011;4307;53.868;11.680;2023-11-22T02:14:33;3.63;;;2.73;;
8538;SDS011;4307;53.868;11.680;2023-11-22T02:17:00;3.13;;;2.70;;
8538;SDS011;4307;53.868;11.680;2023-11-22T02:19:28;3.37;;;2.47;;
8538;SDS011;4307;53.868;11.680;2023-11-22T02:21:55;4.80;;;2.77;;
8538;SDS011;4307;53.868;11.680;2023-11-22T02:24:23;3.00;;;2.70;;
8538;SDS011;4307;53.868;11.680;2023-11-22T02:26:51;2.53;;;2.20;;
8538;SDS011;4307;53.868;11.680;2023-11-22T02:29:18;4.10;;;2.50;;
8538;SDS011;4307;53.868;11.680;2023-11-22T02:31:45;2.93;;;2.63;;
8538;SDS011;4307;53.868;11.680;2023-11-22T02:34:12;2.20;;;2.00;;
8538;SDS011;4307;53.868;11.680;2023-11-22T02:36:41;4.47;;;2.50;;
8538;SDS011;4307;53.868;11.680;2023-11-22T02:39:09;5.27;;;2.60;;
8538;SDS011;4307;53.868;11.680;2023-11-22T02:41:37;3.83;;;2.60;;
8538;SDS011;4307;53.868;11.680;2023-11-22T02:44:03;5.03;;;2.87;;
8538;SDS011;4307;53.868;11.680;2023-11-22T02:46:31;5.93;;;2.90;;
8538;SDS011;4307;53.868;11.680;2023-11-22T02:48:58;2.80;;;2.20;;
8538;SDS011;4307;53.868;11.680;2023-11-22T02:51:25;6.03;;;3.00;;
8538;SDS011;4307;53.868;11.680;2023-11-22T02:53:54;3.83;;;2.87;;
8538;SDS011;4307;53.868;11.680;2023-11-22T02:56:20;3.13;;;2.53;;
8538;SDS011;4307;53.868;11.680;2023-11-22T02:58:48;5.13;;;2.90;;
8538;SDS011;4307;53.868;11.680;2023-11-22T03:01:15;2.53;;;2.33;;
8538;SDS011;4307;53.868;11.680;2023-11-22T03:03:42;3.70;;;2.77;;
8538;SDS011;4307;53.868;11.680;2023-11-22T03:06:09;4.20;;;2.67;;
8538;SDS011;4307;53.868;11.680;2023-11-22T03:08:36;3.13;;;2.83;;
8538;SDS011;4307;53.868;11.680;2023-11-22T03:11:14;3.27;;;2.40;;
8538;SDS011;4307;53.868;11.680;2023-11-22T03:13:41;3.83;;;2.50;;
8538;SDS011;4307;53.868;11.680;2023-11-22T03:16:10;3.87;;;2.60;;
8538;SDS011;4307;53.868;11.680;2023-11-22T03:18:37;3.97;;;2.53;;
8538;SDS011;4307;53.868;11.680;2023-11-22T03:21:05;5.07;;;2.60;;
8538;SDS011;4307;53.868;11.680;2023-11-22T03:23:31;4.03;;;2.53;;
8538;SDS011;4307;53.868;11.680;2023-11-22T03:25:58;2.43;;;2.23;;
8538;SDS011;4307;53.868;11.680;2023-11-22T03:28:25;2.80;;;2.50;;
8538;SDS011;4307;53.868;11.680;2023-11-22T03:30:52;2.87;;;2.17;;
8538;SDS011;4307;53.868;11.680;2023-11-22T03:33:20;3.90;;;2.67;;
8538;SDS011;4307;53.868;11.680;2023-11-22T03:35:47;3.40;;;2.60;;
8538;SDS011;4307;53.868;11.680;2023-11-22T03:38:13;2.37;;;2.10;;
8538;SDS011;4307;53.868;11.680;2023-11-22T03:40:40;4.50;;;2.70;;
8538;SDS011;4307;53.868;11.680;2023-11-22T03:43:06;5.87;;;2.20;;
8538;SDS011;4307;53.868;11.680;2023-11-22T03:45:35;4.40;;;3.17;;
8538;SDS011;4307;53.868;11.680;2023-11-22T03:48:01;3.00;;;2.70;;
8538;SDS011;4307;53.868;11.680;2023-11-22T03:50:29;2.70;;;1.90;;
8538;SDS011;4307;53.868;11.680;2023-11-22T03:52:56;3.07;;;2.77;;
8538;SDS011;4307;53.868;11.680;2023-11-22T03:55:23;3.50;;;2.57;;
8538;SDS011;4307;53.868;11.680;2023-11-22T03:57:49;4.33;;;2.90;;
8538;SDS011;4307;53.868;11.680;2023-11-22T04:00:16;2.67;;;2.13;;
8538;SDS011;4307;53.868;11.680;2023-11-22T04:02:44;5.03;;;2.10;;
8538;SDS011;4307;53.868;11.680;2023-11-22T04:05:11;2.40;;;1.97;;
8538;SDS011;4307;53.868;11.680;2023-11-22T04:07:39;3.63;;;2.50;;
8538;SDS011;4307;53.868;11.680;2023-11-22T04:10:06;2.33;;;2.10;;
8538;SDS011;4307;53.868;11.680;2023-11-22T04:12:33;4.50;;;2.70;;
8538;SDS011;4307;53.868;11.680;2023-11-22T04:15:00;3.67;;;2.70;;
8538;SDS011;4307;53.868;11.680;2023-11-22T04:17:26;3.60;;;2.83;;
8538;SDS011;4307;53.868;11.680;2023-11-22T04:19:53;3.90;;;2.20;;
8538;SDS011;4307;53.868;11.680;2023-11-22T04:22:20;4.00;;;2.80;;
8538;SDS011;4307;53.868;11.680;2023-11-22T04:24:48;3.43;;;2.70;;
8538;SDS011;4307;53.868;11.680;2023-11-22T04:27:14;6.43;;;2.87;;
8538;SDS011;4307;53.868;11.680;2023-11-22T04:29:41;3.43;;;3.00;;
8538;SDS011;4307;53.868;11.680;2023-11-22T04:32:08;2.67;;;2.47;;
8538;SDS011;4307;53.868;11.680;2023-11-22T04:34:35;3.00;;;2.70;;
8538;SDS011;4307;53.868;11.680;2023-11-22T04:37:02;5.50;;;3.20;;
8538;SDS011;4307;53.868;11.680;2023-11-22T04:39:30;4.07;;;3.00;;
8538;SDS011;4307;53.868;11.680;2023-11-22T04:41:58;5.50;;;3.10;;
8538;SDS011;4307;53.868;11.680;2023-11-22T04:44:25;4.33;;;2.80;;
8538;SDS011;4307;53.868;11.680;2023-11-22T04:46:52;3.83;;;2.63;;
8538;SDS011;4307;53.868;11.680;2023-11-22T04:49:19;4.57;;;2.83;;
8538;SDS011;4307;53.868;11.680;2023-11-22T04:51:45;4.37;;;2.50;;
8538;SDS011;4307;53.868;11.680;2023-11-22T04:54:12;2.80;;;2.10;;
8538;SDS011;4307;53.868;11.680;2023-11-22T04:56:39;5.00;;;2.67;;
8538;SDS011;4307;53.868;11.680;2023-11-22T04:59:07;3.00;;;2.70;;
8538;SDS011;4307;53.868;11.680;2023-11-22T05:01:33;4.17;;;2.70;;
8538;SDS011;4307;53.868;11.680;2023-11-22T05:04:00;4.53;;;3.03;;
8538;SDS011;4307;53.868;11.680;2023-11-22T05:06:27;5.60;;;3.10;;
8538;SDS011;4307;53.868;11.680;2023-11-22T05:08:54;3.10;;;2.70;;
8538;SDS011;4307;53.868;11.680;2023-11-22T05:11:21;3.77;;;2.70;;
8538;SDS011;4307;53.868;11.680;2023-11-22T05:13:48;3.50;;;2.93;;
8538;SDS011;4307;53.868;11.680;2023-11-22T05:16:16;2.43;;;2.07;;
8538;SDS011;4307;53.868;11.680;2023-11-22T05:18:43;6.20;;;2.90;;
8538;SDS011;4307;53.868;11.680;2023-11-22T05:21:09;3.80;;;2.40;;
8538;SDS011;4307;53.868;11.680;2023-11-22T05:23:36;2.97;;;2.57;;
8538;SDS011;4307;53.868;11.680;2023-11-22T05:26:03;2.63;;;2.33;;
8538;SDS011;4307;53.868;11.680;2023-11-22T05:28:30;5.97;;;2.77;;
8538;SDS011;4307;53.868;11.680;2023-11-22T05:30:57;6.50;;;3.43;;
8538;SDS011;4307;53.868;11.680;2023-11-22T05:33:25;2.63;;;2.07;;
8538;SDS011;4307;53.868;11.680;2023-11-22T05:35:51;4.37;;;3.03;;
8538;SDS011;4307;53.868;11.680;2023-11-22T05:38:18;6.00;;;3.27;;
8538;SDS011;4307;53.868;11.680;2023-11-22T05:40:45;5.30;;;3.33;;
8538;SDS011;4307;53.868;11.680;2023-11-22T05:43:12;4.47;;;3.27;;
8538;SDS011;4307;53.868;11.680;2023-11-22T05:45:38;5.07;;;2.70;;
8538;SDS011;4307;53.868;11.680;2023-11-22T05:48:05;3.70;;;2.80;;
8538;SDS011;4307;53.868;11.680;2023-11-22T05:50:33;8.00;;;3.13;;
8538;SDS011;4307;53.868;11.680;2023-11-22T05:53:00;3.63;;;2.67;;
8538;SDS011;4307;53.868;11.680;2023-11-22T05:55:27;2.33;;;2.13;;
8538;SDS011;4307;53.868;11.680;2023-11-22T05:57:54;2.97;;;2.47;;
8538;SDS011;4307;53.868;11.680;2023-11-22T06:00:21;9.80;;;2.90;;
8538;SDS011;4307;53.868;11.680;2023-11-22T06:02:47;3.30;;;2.60;;
8538;SDS011;4307;53.868;11.680;2023-11-22T06:05:14;3.23;;;2.60;;
8538;SDS011;4307;53.868;11.680;2023-11-22T06:07:42;4.80;;;3.03;;
8538;SDS011;4307;53.868;11.680;2023-11-22T06:10:09;5.07;;;3.17;;
8538;SDS011;4307;53.868;11.680;2023-11-22T06:12:38;4.60;;;3.10;;
8538;SDS011;4307;53.868;11.680;2023-11-22T06:15:04;10.03;;;3.20;;
8538;SDS011;4307;53.868;11.680;2023-11-22T06:17:32;4.53;;;3.10;;
8538;SDS011;4307;53.868;11.680;2023-11-22T06:19:59;5.57;;;3.00;;
8538;SDS011;4307;53.868;11.680;2023-11-22T06:22:26;4.83;;;3.30;;
8538;SDS011;4307;53.868;11.680;2023-11-22T06:24:54;9.33;;;3.80;;
8538;SDS011;4307;53.868;11.680;2023-11-22T06:27:20;4.80;;;3.07;;
8538;SDS011;4307;53.868;11.680;2023-11-22T06:29:47;5.07;;;3.30;;
8538;SDS011;4307;53.868;11.680;2023-11-22T06:32:13;4.87;;;2.83;;
8538;SDS011;4307;53.868;11.680;2023-11-22T06:34:40;7.27;;;3.10;;
8538;SDS011;4307;53.868;11.680;2023-11-22T06:37:07;5.63;;;3.30;;
8538;SDS011;4307;53.868;11.680;2023-11-22T06:39:34;5.27;;;3.83;;
8538;SDS011;4307;53.868;11.680;2023-11-22T06:42:03;3.77;;;3.37;;
8538;SDS011;4307;53.868;11.680;2023-11-22T06:44:31;4.77;;;3.57;;
8538;SDS011;4307;53.868;11.680;2023-11-22T06:46:59;7.87;;;3.83;;
8538;SDS011;4307;53.868;11.680;2023-11-22T06:49:26;5.77;;;3.03;;
8538;SDS011;4307;53.868;11.680;2023-11-22T06:51:52;4.53;;;3.80;;
8538;SDS011;4307;53.868;11.680;2023-11-22T06:54:19;10.13;;;3.83;;
8538;SDS011;4307;53.868;11.680;2023-11-22T06:56:46;4.93;;;3.27;;
8538;SDS011;4307;53.868;11.680;2023-11-22T06:59:14;7.07;;;3.63;;
8538;SDS011;4307;53.868;11.680;2023-11-22T07:01:41;5.13;;;3.60;;
8538;SDS011;4307;53.868;11.680;2023-11-22T07:04:07;6.97;;;3.70;;
8538;SDS011;4307;53.868;11.680;2023-11-22T07:06:34;6.07;;;3.80;;
8538;SDS011;4307;53.868;11.680;2023-11-22T07:09:02;6.43;;;3.90;;
8538;SDS011;4307;53.868;11.680;2023-11-22T07:11:29;7.17;;;4.17;;
8538;SDS011;4307;53.868;11.680;2023-11-22T07:13:56;5.00;;;3.50;;
8538;SDS011;4307;53.868;11.680;2023-11-22T07:16:24;6.07;;;3.50;;
8538;SDS011;4307;53.868;11.680;2023-11-22T07:18:51;6.23;;;3.17;;
8538;SDS011;4307;53.868;11.680;2023-11-22T07:21:18;6.73;;;4.07;;
8538;SDS011;4307;53.868;11.680;2023-11-22T07:23:45;10.37;;;3.53;;
8538;SDS011;4307;53.868;11.680;2023-11-22T07:26:12;12.40;;;4.60;;
8538;SDS011;4307;53.868;11.680;2023-11-22T07:28:39;8.23;;;4.27;;
8538;SDS011;4307;53.868;11.680;2023-11-22T07:31:06;3.93;;;3.10;;
8538;SDS011;4307;53.868;11.680;2023-11-22T07:33:35;16.03;;;5.20;;
8538;SDS011;4307;53.868;11.680;2023-11-22T07:36:03;16.37;;;4.93;;
8538;SDS011;4307;53.868;11.680;2023-11-22T07:38:31;13.00;;;5.90;;
8538;SDS011;4307;53.868;11.680;2023-11-22T07:40:58;17.97;;;7.80;;
8538;SDS011;4307;53.868;11.680;2023-11-22T07:43:26;21.23;;;8.67;;
8538;SDS011;4307;53.868;11.680;2023-11-22T07:45:53;12.60;;;7.20;;
8538;SDS011;4307;53.868;11.680;2023-11-22T07:48:19;18.43;;;7.50;;
8538;SDS011;4307;53.868;11.680;2023-11-22T07:50:49;21.30;;;6.83;;
8538;SDS011;4307;53.868;11.680;2023-11-22T07:53:17;19.10;;;7.73;;
8538;SDS011;4307;53.868;11.680;2023-11-22T07:55:43;28.63;;;7.10;;
8538;SDS011;4307;53.868;11.680;2023-11-22T07:58:10;16.63;;;5.47;;
8538;SDS011;4307;53.868;11.680;2023-11-22T08:00:37;12.27;;;6.40;;
8538;SDS011;4307;53.868;11.680;2023-11-22T08:03:06;12.43;;;6.70;;
8538;SDS011;4307;53.868;11.680;2023-11-22T08:05:34;10.83;;;6.00;;
8538;SDS011;4307;53.868;11.680;2023-11-22T08:08:02;11.10;;;5.40;;
8538;SDS011;4307;53.868;11.680;2023-11-22T08:10:31;10.67;;;6.27;;
8538;SDS011;4307;53.868;11.680;2023-11-22T08:12:59;9.43;;;6.03;;
8538;SDS011;4307;53.868;11.680;2023-11-22T08:15:27;11.80;;;6.70;;
8538;SDS011;4307;53.868;11.680;2023-11-22T08:17:54;16.67;;;6.17;;
8538;SDS011;4307;53.868;11.680;2023-11-22T08:20:20;26.40;;;6.90;;
8538;SDS011;4307;53.868;11.680;2023-11-22T08:22:47;11.83;;;6.57;;
8538;SDS011;4307;53.868;11.680;2023-11-22T08:25:17;24.83;;;6.83;;
8538;SDS011;4307;53.868;11.680;2023-11-22T08:27:44;13.90;;;6.30;;
8538;SDS011;4307;53.868;11.680;2023-11-22T08:30:11;48.03;;;8.43;;
8538;SDS011;4307;53.868;11.680;2023-11-22T08:32:40;15.07;;;6.10;;
8538;SDS011;4307;53.868;11.680;2023-11-22T08:35:08;9.33;;;6.03;;
8538;SDS011;4307;53.868;11.680;2023-11-22T08:37:35;7.93;;;5.83;;
8538;SDS011;4307;53.868;11.680;2023-11-22T08:40:03;12.50;;;6.83;;
8538;SDS011;4307;53.868;11.680;2023-11-22T08:42:33;13.50;;;6.43;;
8538;SDS011;4307;53.868;11.680;2023-11-22T08:45:00;9.10;;;6.57;;
8538;SDS011;4307;53.868;11.680;2023-11-22T08:47:27;9.57;;;6.70;;
8538;SDS011;4307;53.868;11.680;2023-11-22T08:49:54;9.63;;;6.80;;
8538;SDS011;4307;53.868;11.680;2023-11-22T08:52:22;7.63;;;6.50;;
8538;SDS011;4307;53.868;11.680;2023-11-22T08:54:49;9.70;;;6.63;;
8538;SDS011;4307;53.868;11.680;2023-11-22T08:57:16;9.73;;;6.27;;
8538;SDS011;4307;53.868;11.680;2023-11-22T08:59:44;11.27;;;6.07;;
8538;SDS011;4307;53.868;11.680;2023-11-22T09:02:12;9.53;;;6.20;;
8538;SDS011;4307;53.868;11.680;2023-11-22T09:04:40;10.80;;;5.87;;
8538;SDS011;4307;53.868;11.680;2023-11-22T09:07:07;7.17;;;5.67;;
8538;SDS011;4307;53.868;11.680;2023-11-22T09:09:35;8.00;;;6.27;;
8538;SDS011;4307;53.868;11.680;2023-11-22T09:12:02;12.47;;;5.77;;
8538;SDS011;4307;53.868;11.680;2023-11-22T09:14:29;6.07;;;4.53;;
8538;SDS011;4307;53.868;11.680;2023-11-22T09:16:57;5.70;;;4.60;;
8538;SDS011;4307;53.868;11.680;2023-11-22T09:19:26;8.77;;;4.40;;
8538;SDS011;4307;53.868;11.680;2023-11-22T09:21:53;5.17;;;3.80;;
8538;SDS011;4307;53.868;11.680;2023-11-22T09:24:20;3.23;;;2.93;;
8538;SDS011;4307;53.868;11.680;2023-11-22T09:26:46;3.13;;;2.60;;
8538;SDS011;4307;53.868;11.680;2023-11-22T09:29:13;3.67;;;2.83;;
8538;SDS011;4307;53.868;11.680;2023-11-22T09:31:40;3.40;;;2.90;;
8538;SDS011;4307;53.868;11.680;2023-11-22T09:34:08;4.50;;;2.47;;
8538;SDS011;4307;53.868;11.680;2023-11-22T09:36:35;3.67;;;2.83;;
8538;SDS011;4307;53.868;11.680;2023-11-22T09:39:02;2.80;;;2.53;;
8538;SDS011;4307;53.868;11.680;2023-11-22T09:41:33;2.50;;;2.30;;
8538;SDS011;4307;53.868;11.680;2023-11-22T09:44:00;3.67;;;2.70;;
8538;SDS011;4307;53.868;11.680;2023-11-22T09:46:28;2.50;;;2.30;;
8538;SDS011;4307;53.868;11.680;2023-11-22T09:48:56;2.50;;;2.30;;
8538;SDS011;4307;53.868;11.680;2023-11-22T09:51:26;4.23;;;2.63;;
8538;SDS011;4307;53.868;11.680;2023-11-22T09:53:55;2.77;;;2.37;;
8538;SDS011;4307;53.868;11.680;2023-11-22T09:56:24;3.07;;;2.33;;
8538;SDS011;4307;53.868;11.680;2023-11-22T09:58:51;2.60;;;2.40;;
8538;SDS011;4307;53.868;11.680;2023-11-22T10:01:21;2.03;;;1.70;;
8538;SDS011;4307;53.868;11.680;2023-11-22T10:03:48;2.80;;;2.30;;
8538;SDS011;4307;53.868;11.680;2023-11-22T10:06:15;2.47;;;2.27;;
8538;SDS011;4307;53.868;11.680;2023-11-22T10:08:45;3.63;;;2.20;;
8538;SDS011;4307;53.868;11.680;2023-11-22T10:11:13;3.83;;;2.53;;
8538;SDS011;4307;53.868;11.680;2023-11-22T10:13:42;2.30;;;2.10;;
8538;SDS011;4307;53.868;11.680;2023-11-22T10:16:11;1.83;;;1.63;;
8538;SDS011;4307;53.868;11.680;2023-11-22T10:18:41;2.53;;;2.13;;
8538;SDS011;4307;53.868;11.680;2023-11-22T10:21:18;2.67;;;2.03;;
8538;SDS011;4307;53.868;11.680;2023-11-22T10:23:47;3.07;;;1.90;;
8538;SDS011;4307;53.868;11.680;2023-11-22T10:26:13;1.83;;;1.73;;
8538;SDS011;4307;53.868;11.680;2023-11-22T10:28:41;3.00;;;2.07;;
8538;SDS011;4307;53.868;11.680;2023-11-22T10:31:09;1.53;;;1.43;;
8538;SDS011;4307;53.868;11.680;2023-11-22T10:33:38;2.03;;;1.63;;
8538;SDS011;4307;53.868;11.680;2023-11-22T10:36:07;2.37;;;1.77;;
8538;SDS011;4307;53.868;11.680;2023-11-22T10:38:34;1.87;;;1.67;;
8538;SDS011;4307;53.868;11.680;2023-11-22T10:41:04;2.07;;;1.77;;
8538;SDS011;4307;53.868;11.680;2023-11-22T10:43:32;1.60;;;1.50;;
8538;SDS011;4307;53.868;11.680;2023-11-22T10:46:01;2.03;;;1.80;;
8538;SDS011;4307;53.868;11.680;2023-11-22T10:48:29;1.73;;;1.37;;
8538;SDS011;4307;53.868;11.680;2023-11-22T10:50:58;2.30;;;1.67;;
8538;SDS011;4307;53.868;11.680;2023-11-22T10:53:30;1.57;;;1.40;;
8538;SDS011;4307;53.868;11.680;2023-11-22T10:55:59;1.60;;;1.50;;
8538;SDS011;4307;53.868;11.680;2023-11-22T10:58:31;1.83;;;1.70;;
8538;SDS011;4307;53.868;11.680;2023-11-22T11:01:00;1.63;;;1.30;;
8538;SDS011;4307;53.868;11.680;2023-11-22T11:03:34;4.30;;;1.53;;
8538;SDS011;4307;53.868;11.680;2023-11-22T11:06:06;1.43;;;1.30;;
8538;SDS011;4307;53.868;11.680;2023-11-22T11:08:38;1.80;;;1.70;;
8538;SDS011;4307;53.868;11.680;2023-11-22T11:11:06;2.27;;;1.60;;
8538;SDS011;4307;53.868;11.680;2023-11-22T11:13:34;2.17;;;1.40;;
8538;SDS011;4307;53.868;11.680;2023-11-22T11:16:00;1.50;;;1.33;;
8538;SDS011;4307;53.868;11.680;2023-11-22T11:18:28;1.40;;;1.30;;
8538;SDS011;4307;53.868;11.680;2023-11-22T11:20:55;2.17;;;1.97;;
8538;SDS011;4307;53.868;11.680;2023-11-22T11:23:24;2.10;;;1.33;;
8538;SDS011;4307;53.868;11.680;2023-11-22T11:25:52;1.20;;;1.10;;
8538;SDS011;4307;53.868;11.680;2023-11-22T11:28:21;2.03;;;1.33;;
8538;SDS011;4307;53.868;11.680;2023-11-22T11:30:50;1.30;;;1.20;;
8538;SDS011;4307;53.868;11.680;2023-11-22T11:33:18;1.53;;;1.33;;
8538;SDS011;4307;53.868;11.680;2023-11-22T11:35:52;1.40;;;1.33;;
8538;SDS011;4307;53.868;11.680;2023-11-22T11:38:22;1.30;;;1.00;;
8538;SDS011;4307;53.868;11.680;2023-11-22T11:41:05;1.20;;;1.10;;
8538;SDS011;4307;53.868;11.680;2023-11-22T11:43:40;1.87;;;1.37;;
8538;SDS011;4307;53.868;11.680;2023-11-22T11:46:09;0.90;;;0.90;;
8538;SDS011;4307;53.868;11.680;2023-11-22T11:48:36;2.33;;;1.13;;
8538;SDS011;4307;53.868;11.680;2023-11-22T11:51:02;1.17;;;1.10;;
8538;SDS011;4307;53.868;11.680;2023-11-22T11:53:31;3.73;;;1.20;;
8538;SDS011;4307;53.868;11.680;2023-11-22T11:55:59;3.10;;;1.67;;
8538;SDS011;4307;53.868;11.680;2023-11-22T11:58:27;1.77;;;1.20;;
8538;SDS011;4307;53.868;11.680;2023-11-22T12:00:55;1.67;;;1.57;;
8538;SDS011;4307;53.868;11.680;2023-11-22T12:03:23;1.63;;;0.93;;
8538;SDS011;4307;53.868;11.680;2023-11-22T12:05:49;1.60;;;1.23;;
8538;SDS011;4307;53.868;11.680;2023-11-22T12:08:16;1.30;;;1.20;;
8538;SDS011;4307;53.868;11.680;2023-11-22T12:10:44;1.77;;;1.20;;
8538;SDS011;4307;53.868;11.680;2023-11-22T12:13:13;3.27;;;1.20;;
8538;SDS011;4307;53.868;11.680;2023-11-22T12:15:46;2.47;;;1.13;;
8538;SDS011;4307;53.868;11.680;2023-11-22T12:18:14;1.37;;;1.20;;
8538;SDS011;4307;53.868;11.680;2023-11-22T12:20:41;2.43;;;1.37;;
8538;SDS011;4307;53.868;11.680;2023-11-22T12:23:19;0.90;;;0.90;;
8538;SDS011;4307;53.868;11.680;2023-11-22T12:25:46;2.03;;;1.30;;
8538;SDS011;4307;53.868;11.680;2023-11-22T12:28:15;1.20;;;1.00;;
8538;SDS011;4307;53.868;11.680;2023-11-22T12:30:43;1.43;;;1.33;;
8538;SDS011;4307;53.868;11.680;2023-11-22T12:33:10;0.90;;;0.90;;
8538;SDS011;4307;53.868;11.680;2023-11-22T12:35:39;1.13;;;1.03;;
8538;SDS011;4307;53.868;11.680;2023-11-22T12:38:06;1.70;;;1.13;;
8538;SDS011;4307;53.868;11.680;2023-11-22T12:40:33;1.70;;;1.60;;
8538;SDS011;4307;53.868;11.680;2023-11-22T12:43:00;1.13;;;1.03;;
8538;SDS011;4307;53.868;11.680;2023-11-22T12:45:27;1.47;;;1.10;;
8538;SDS011;4307;53.868;11.680;2023-11-22T12:47:55;1.30;;;1.20;;
8538;SDS011;4307;53.868;11.680;2023-11-22T12:50:30;3.03;;;1.20;;
8538;SDS011;4307;53.868;11.680;2023-11-22T12:53:10;2.60;;;1.30;;
8538;SDS011;4307;53.868;11.680;2023-11-22T12:55:41;1.20;;;1.10;;
8538;SDS011;4307;53.868;11.680;2023-11-22T12:58:09;0.93;;;0.93;;
8538;SDS011;4307;53.868;11.680;2023-11-22T13:00:35;1.70;;;1.60;;
8538;SDS011;4307;53.868;11.680;2023-11-22T13:03:05;2.37;;;1.17;;
8538;SDS011;4307;53.868;11.680;2023-11-22T13:05:33;2.10;;;1.47;;
8538;SDS011;4307;53.868;11.680;2023-11-22T13:08:00;2.00;;;1.80;;
8538;SDS011;4307;53.868;11.680;2023-11-22T13:10:30;1.43;;;1.00;;
8538;SDS011;4307;53.868;11.680;2023-11-22T13:12:57;1.63;;;1.53;;
8538;SDS011;4307;53.868;11.680;2023-11-22T13:15:23;2.00;;;1.67;;
8538;SDS011;4307;53.868;11.680;2023-11-22T13:17:51;1.77;;;1.30;;
8538;SDS011;4307;53.868;11.680;2023-11-22T13:20:20;1.93;;;1.37;;
8538;SDS011;4307;53.868;11.680;2023-11-22T13:22:48;2.03;;;1.83;;
8538;SDS011;4307;53.868;11.680;2023-11-22T13:25:15;1.73;;;1.57;;
8538;SDS011;4307;53.868;11.680;2023-11-22T13:27:45;2.60;;;1.80;;
8538;SDS011;4307;53.868;11.680;2023-11-22T13:30:12;1.53;;;1.30;;
8538;SDS011;4307;53.868;11.680;2023-11-22T13:32:39;2.93;;;1.67;;
8538;SDS011;4307;53.868;11.680;2023-11-22T13:35:08;1.73;;;1.63;;
8538;SDS011;4307;53.868;11.680;2023-11-22T13:37:39;2.23;;;1.50;;
8538;SDS011;4307;53.868;11.680;2023-11-22T13:40:08;1.47;;;1.37;;
8538;SDS011;4307;53.868;11.680;2023-11-22T13:42:40;2.17;;;1.80;;
8538;SDS011;4307;53.868;11.680;2023-11-22T13:45:11;1.73;;;1.63;;
8538;SDS011;4307;53.868;11.680;2023-11-22T13:47:42;1.70;;;1.60;;
8538;SDS011;4307;53.868;11.680;2023-11-22T13:50:11;2.63;;;1.90;;
8538;SDS011;4307;53.868;11.680;2023-11-22T13:52:40;2.17;;;1.97;;
8538;SDS011;4307;53.868;11.680;2023-11-22T13:55:07;2.50;;;1.77;;
8538;SDS011;4307;53.868;11.680;2023-11-22T13:57:36;2.70;;;1.60;;
8538;SDS011;4307;53.868;11.680;2023-11-22T14:00:05;1.90;;;1.67;;
8538;SDS011;4307;53.868;11.680;2023-11-22T14:02:36;2.40;;;1.60;;
8538;SDS011;4307;53.868;11.680;2023-11-22T14:05:03;1.53;;;1.43;;
8538;SDS011;4307;53.868;11.680;2023-11-22T14:07:32;1.47;;;1.37;;
8538;SDS011;4307;53.868;11.680;2023-11-22T14:09:59;1.97;;;1.50;;
8538;SDS011;4307;53.868;11.680;2023-11-22T14:12:28;6.53;;;1.93;;
8538;SDS011;4307;53.868;11.680;2023-11-22T14:14:55;3.27;;;1.80;;
8538;SDS011;4307;53.868;11.680;2023-11-22T14:17:23;1.70;;;1.60;;
8538;SDS011;4307;53.868;11.680;2023-11-22T14:19:50;1.47;;;1.37;;
8538;SDS011;4307;53.868;11.680;2023-11-22T14:22:17;1.73;;;1.47;;
8538;SDS011;4307;53.868;11.680;2023-11-22T14:24:45;2.10;;;1.30;;
8538;SDS011;4307;53.868;11.680;2023-11-22T14:27:12;2.57;;;1.43;;
8538;SDS011;4307;53.868;11.680;2023-11-22T14:29:39;1.57;;;1.30;;
8538;SDS011;4307;53.868;11.680;2023-11-22T14:32:07;1.47;;;1.17;;
8538;SDS011;4307;53.868;11.680;2023-11-22T14:34:35;1.03;;;1.00;;
8538;SDS011;4307;53.868;11.680;2023-11-22T14:37:03;2.40;;;1.13;;
8538;SDS011;4307;53.868;11.680;2023-11-22T14:39:30;1.90;;;1.40;;
8538;SDS011;4307;53.868;11.680;2023-11-22T14:41:58;1.40;;;1.30;;
8538;SDS011;4307;53.868;11.680;2023-11-22T14:44:25;2.33;;;0.93;;
8538;SDS011;4307;53.868;11.680;2023-11-22T14:46:52;2.13;;;1.30;;
8538;SDS011;4307;53.868;11.680;2023-11-22T14:49:18;3.90;;;1.80;;
8538;SDS011;4307;53.868;11.680;2023-11-22T14:51:47;1.40;;;1.30;;
8538;SDS011;4307;53.868;11.680;2023-11-22T14:54:14;2.00;;;1.40;;
8538;SDS011;4307;53.868;11.680;2023-11-22T14:56:40;2.67;;;1.47;;
8538;SDS011;4307;53.868;11.680;2023-11-22T14:59:09;2.20;;;1.77;;
8538;SDS011;4307;53.868;11.680;2023-11-22T15:01:38;1.43;;;1.33;;
8538;SDS011;4307;53.868;11.680;2023-11-22T15:04:05;1.50;;;1.40;;